sensor_id;sensor_type;location;lat;lon;timestamp;temperature;humidity
26575;DHT22;67165;50.256;10.978;2023-04-04T00:01:58;1.60;98.00
26575;DHT22;67165;50.256;10.978;2023-04-04T00:04:28;1.50;98.00
26575;DHT22;67165;50.256;10.978;2023-04-04T00:06:54;1.60;98.00
26575;DHT22;67165;50.256;10.978;2023-04-04T00:09:20;1.50;98.00
26575;DHT22;67165;50.256;10.978;2023-04-04T00:11:46;1.50;98.00
26575;DHT22;67165;50.256;10.978;2023-04-04T00:14:12;1.30;98.00
26575;DHT22;67165;50.256;10.978;2023-04-04T00:16:37;1.20;98.00
26575;DHT22;67165;50.256;10.978;2023-04-04T00:19:03;1.20;98.00
26575;DHT22;67165;50.256;10.978;2023-04-04T00:21:29;1.20;98.00
26575;DHT22;67165;50.256;10.978;2023-04-04T00:23:58;1.10;98.00
26575;DHT22;67165;50.256;10.978;2023-04-04T00:26:24;1.00;98.00
26575;DHT22;67165;50.256;10.978;2023-04-04T00:28:51;0.90;98.00
26575;DHT22;67165;50.256;10.978;2023-04-04T00:31:17;1.00;98.00
26575;DHT22;67165;50.256;10.978;2023-04-04T00:33:43;0.90;98.00
26575;DHT22;67165;50.256;10.978;2023-04-04T00:36:08;0.80;98.00
26575;DHT22;67165;50.256;10.978;2023-04-04T00:38:34;0.80;98.00
26575;DHT22;67165;50.256;10.978;2023-04-04T00:41:00;0.80;98.00
26575;DHT22;67165;50.256;10.978;2023-04-04T00:43:26;0.70;98.00
26575;DHT22;67165;50.256;10.978;2023-04-04T00:45:52;0.70;98.00
26575;DHT22;67165;50.256;10.978;2023-04-04T00:48:19;0.70;98.00
26575;DHT22;67165;50.256;10.978;2023-04-04T00:50:45;0.70;98.00
26575;DHT22;67165;50.256;10.978;2023-04-04T00:53:10;0.70;98.00
26575;DHT22;67165;50.256;10.978;2023-04-04T00:55:39;0.70;98.00
26575;DHT22;67165;50.256;10.978;2023-04-04T00:58:05;0.70;98.00
26575;DHT22;67165;50.256;10.978;2023-04-04T01:00:33;0.70;98.00
26575;DHT22;67165;50.256;10.978;2023-04-04T01:02:59;0.70;98.00
26575;DHT22;67165;50.256;10.978;2023-04-04T01:05:25;0.80;98.00
26575;DHT22;67165;50.256;10.978;2023-04-04T01:07:51;0.80;98.00
26575;DHT22;67165;50.256;10.978;2023-04-04T01:10:17;0.80;98.00
26575;DHT22;67165;50.256;10.978;2023-04-04T01:12:42;0.80;98.00
26575;DHT22;67165;50.256;10.978;2023-04-04T01:15:09;0.80;98.00
26575;DHT22;67165;50.256;10.978;2023-04-04T01:17:35;0.70;98.00
26575;DHT22;67165;50.256;10.978;2023-04-04T01:20:13;0.70;98.00
26575;DHT22;67165;50.256;10.978;2023-04-04T01:22:41;0.80;98.00
26575;DHT22;67165;50.256;10.978;2023-04-04T01:25:08;0.70;98.00
26575;DHT22;67165;50.256;10.978;2023-04-04T01:27:33;0.70;98.00
26575;DHT22;67165;50.256;10.978;2023-04-04T01:29:59;0.60;98.00
26575;DHT22;67165;50.256;10.978;2023-04-04T01:37:41;0.30;98.00
26575;DHT22;67165;50.256;10.978;2023-04-04T01:40:19;0.20;98.00
26575;DHT22;67165;50.256;10.978;2023-04-04T01:42:46;0.10;98.00
26575;DHT22;67165;50.256;10.978;2023-04-04T01:45:13;0.10;98.00
26575;DHT22;67165;50.256;10.978;2023-04-04T01:47:40;0.00;98.00
26575;DHT22;67165;50.256;10.978;2023-04-04T01:50:09;0.00;98.00
26575;DHT22;67165;50.256;10.978;2023-04-04T01:52:36;-0.10;98.00
26575;DHT22;67165;50.256;10.978;2023-04-04T01:55:02;-0.20;98.00
26575;DHT22;67165;50.256;10.978;2023-04-04T01:57:28;-0.20;98.00
26575;DHT22;67165;50.256;10.978;2023-04-04T01:59:54;-0.30;98.00
26575;DHT22;67165;50.256;10.978;2023-04-04T02:02:20;-0.40;98.00
26575;DHT22;67165;50.256;10.978;2023-04-04T02:04:46;-0.40;98.00
26575;DHT22;67165;50.256;10.978;2023-04-04T02:07:12;-0.50;98.00
26575;DHT22;67165;50.256;10.978;2023-04-04T02:09:38;-0.50;98.00
26575;DHT22;67165;50.256;10.978;2023-04-04T02:12:04;-0.60;98.00
26575;DHT22;67165;50.256;10.978;2023-04-04T02:14:30;-0.60;98.00
26575;DHT22;67165;50.256;10.978;2023-04-04T02:16:56;-0.50;98.00
26575;DHT22;67165;50.256;10.978;2023-04-04T02:19:21;-0.60;98.00
26575;DHT22;67165;50.256;10.978;2023-04-04T02:21:48;-0.60;98.00
26575;DHT22;67165;50.256;10.978;2023-04-04T02:24:14;-0.60;98.00
26575;DHT22;67165;50.256;10.978;2023-04-04T02:26:40;-0.70;98.00
26575;DHT22;67165;50.256;10.978;2023-04-04T02:29:06;-0.70;98.00
26575;DHT22;67165;50.256;10.978;2023-04-04T02:31:32;-0.80;98.00
26575;DHT22;67165;50.256;10.978;2023-04-04T02:33:58;-0.80;98.00
26575;DHT22;67165;50.256;10.978;2023-04-04T02:36:23;-0.90;98.00
26575;DHT22;67165;50.256;10.978;2023-04-04T02:38:49;-0.90;98.00
26575;DHT22;67165;50.256;10.978;2023-04-04T02:41:15;-1.00;98.00
26575;DHT22;67165;50.256;10.978;2023-04-04T02:43:40;-1.00;98.00
26575;DHT22;67165;50.256;10.978;2023-04-04T02:46:06;-1.00;98.00
26575;DHT22;67165;50.256;10.978;2023-04-04T02:48:32;-1.10;98.00
26575;DHT22;67165;50.256;10.978;2023-04-04T02:50:58;-1.00;98.00
26575;DHT22;67165;50.256;10.978;2023-04-04T02:53:23;-1.10;98.00
26575;DHT22;67165;50.256;10.978;2023-04-04T02:55:49;-1.10;98.00
26575;DHT22;67165;50.256;10.978;2023-04-04T02:58:14;-1.20;98.00
26575;DHT22;67165;50.256;10.978;2023-04-04T03:00:40;-1.20;98.00
26575;DHT22;67165;50.256;10.978;2023-04-04T03:03:06;-1.20;98.00
26575;DHT22;67165;50.256;10.978;2023-04-04T03:05:32;-1.20;98.00
26575;DHT22;67165;50.256;10.978;2023-04-04T03:07:58;-1.30;98.00
26575;DHT22;67165;50.256;10.978;2023-04-04T03:10:26;-1.30;98.00
26575;DHT22;67165;50.256;10.978;2023-04-04T03:12:52;-1.40;98.00
26575;DHT22;67165;50.256;10.978;2023-04-04T03:15:18;-1.40;98.00
26575;DHT22;67165;50.256;10.978;2023-04-04T03:17:44;-1.40;98.00
26575;DHT22;67165;50.256;10.978;2023-04-04T03:20:11;-1.40;98.00
26575;DHT22;67165;50.256;10.978;2023-04-04T03:22:37;-1.40;98.00
26575;DHT22;67165;50.256;10.978;2023-04-04T03:25:03;-1.40;98.00
26575;DHT22;67165;50.256;10.978;2023-04-04T03:27:31;-1.50;98.00
26575;DHT22;67165;50.256;10.978;2023-04-04T03:29:57;-1.50;98.00
26575;DHT22;67165;50.256;10.978;2023-04-04T03:32:26;-1.50;98.00
26575;DHT22;67165;50.256;10.978;2023-04-04T03:34:52;-1.50;98.00
26575;DHT22;67165;50.256;10.978;2023-04-04T03:37:18;-1.50;98.00
26575;DHT22;67165;50.256;10.978;2023-04-04T03:39:44;-1.50;98.00
26575;DHT22;67165;50.256;10.978;2023-04-04T03:42:10;-1.50;98.00
26575;DHT22;67165;50.256;10.978;2023-04-04T03:44:41;-1.60;98.00
26575;DHT22;67165;50.256;10.978;2023-04-04T03:47:07;-1.60;98.00
26575;DHT22;67165;50.256;10.978;2023-04-04T03:49:35;-1.60;98.00
26575;DHT22;67165;50.256;10.978;2023-04-04T03:52:01;-1.70;98.00
26575;DHT22;67165;50.256;10.978;2023-04-04T03:54:27;-1.70;98.00
26575;DHT22;67165;50.256;10.978;2023-04-04T03:56:54;-1.80;98.00
26575;DHT22;67165;50.256;10.978;2023-04-04T03:59:20;-1.80;98.00
26575;DHT22;67165;50.256;10.978;2023-04-04T04:01:46;-1.70;98.00
26575;DHT22;67165;50.256;10.978;2023-04-04T04:04:11;-1.80;98.00
26575;DHT22;67165;50.256;10.978;2023-04-04T04:06:37;-1.80;98.00
26575;DHT22;67165;50.256;10.978;2023-04-04T04:09:03;-1.80;98.00
26575;DHT22;67165;50.256;10.978;2023-04-04T04:11:29;-1.70;98.00
26575;DHT22;67165;50.256;10.978;2023-04-04T04:13:54;-1.80;98.00
26575;DHT22;67165;50.256;10.978;2023-04-04T04:16:21;-1.80;98.00
26575;DHT22;67165;50.256;10.978;2023-04-04T04:18:47;-1.90;98.00
26575;DHT22;67165;50.256;10.978;2023-04-04T04:21:13;-1.90;98.00
26575;DHT22;67165;50.256;10.978;2023-04-04T04:23:39;-1.90;98.00
26575;DHT22;67165;50.256;10.978;2023-04-04T04:26:05;-1.90;98.00
26575;DHT22;67165;50.256;10.978;2023-04-04T04:28:31;-1.80;98.00
26575;DHT22;67165;50.256;10.978;2023-04-04T04:31:03;-1.90;98.00
26575;DHT22;67165;50.256;10.978;2023-04-04T04:33:30;-1.90;98.00
26575;DHT22;67165;50.256;10.978;2023-04-04T04:35:59;-1.90;98.00
26575;DHT22;67165;50.256;10.978;2023-04-04T04:38:26;-1.90;98.00
26575;DHT22;67165;50.256;10.978;2023-04-04T04:40:53;-1.90;98.00
26575;DHT22;67165;50.256;10.978;2023-04-04T04:43:19;-1.90;98.00
26575;DHT22;67165;50.256;10.978;2023-04-04T04:45:45;-1.90;98.00
26575;DHT22;67165;50.256;10.978;2023-04-04T04:48:10;-2.00;98.00
26575;DHT22;67165;50.256;10.978;2023-04-04T04:50:37;-2.00;98.00
26575;DHT22;67165;50.256;10.978;2023-04-04T04:53:03;-2.00;98.00
26575;DHT22;67165;50.256;10.978;2023-04-04T04:55:29;-2.00;98.00
26575;DHT22;67165;50.256;10.978;2023-04-04T04:57:55;-2.00;98.00
26575;DHT22;67165;50.256;10.978;2023-04-04T05:00:21;-2.10;98.00
26575;DHT22;67165;50.256;10.978;2023-04-04T05:02:47;-2.10;98.00
26575;DHT22;67165;50.256;10.978;2023-04-04T05:05:14;-2.10;98.00
26575;DHT22;67165;50.256;10.978;2023-04-04T05:07:44;-2.00;98.00
26575;DHT22;67165;50.256;10.978;2023-04-04T05:10:10;-2.00;98.00
26575;DHT22;67165;50.256;10.978;2023-04-04T05:12:41;-2.10;98.00
26575;DHT22;67165;50.256;10.978;2023-04-04T05:15:08;-2.10;98.00
26575;DHT22;67165;50.256;10.978;2023-04-04T05:17:37;-2.10;98.00
26575;DHT22;67165;50.256;10.978;2023-04-04T05:20:03;-2.00;98.00
26575;DHT22;67165;50.256;10.978;2023-04-04T05:22:29;-2.00;98.00
26575;DHT22;67165;50.256;10.978;2023-04-04T05:24:55;-2.00;98.00
26575;DHT22;67165;50.256;10.978;2023-04-04T05:27:20;-1.90;98.00
26575;DHT22;67165;50.256;10.978;2023-04-04T05:29:46;-1.80;98.00
26575;DHT22;67165;50.256;10.978;2023-04-04T05:32:13;-1.70;98.00
26575;DHT22;67165;50.256;10.978;2023-04-04T05:34:39;-1.70;98.00
26575;DHT22;67165;50.256;10.978;2023-04-04T05:37:04;-1.70;98.00
26575;DHT22;67165;50.256;10.978;2023-04-04T05:39:30;-1.60;98.00
26575;DHT22;67165;50.256;10.978;2023-04-04T05:41:56;-1.50;98.00
26575;DHT22;67165;50.256;10.978;2023-04-04T05:44:22;-1.30;98.00
26575;DHT22;67165;50.256;10.978;2023-04-04T05:46:47;-1.10;98.00
26575;DHT22;67165;50.256;10.978;2023-04-04T05:49:13;-1.00;98.00
26575;DHT22;67165;50.256;10.978;2023-04-04T05:51:39;-0.70;98.00
26575;DHT22;67165;50.256;10.978;2023-04-04T05:54:05;-0.50;98.00
26575;DHT22;67165;50.256;10.978;2023-04-04T05:56:32;-0.20;98.00
26575;DHT22;67165;50.256;10.978;2023-04-04T05:58:58;0.00;98.00
26575;DHT22;67165;50.256;10.978;2023-04-04T06:01:24;0.10;98.00
26575;DHT22;67165;50.256;10.978;2023-04-04T06:03:50;0.30;98.00
26575;DHT22;67165;50.256;10.978;2023-04-04T06:06:16;0.40;98.00
26575;DHT22;67165;50.256;10.978;2023-04-04T06:08:42;0.60;98.00
26575;DHT22;67165;50.256;10.978;2023-04-04T06:11:07;0.50;98.00
26575;DHT22;67165;50.256;10.978;2023-04-04T06:13:34;0.50;98.00
26575;DHT22;67165;50.256;10.978;2023-04-04T06:16:00;0.40;98.00
26575;DHT22;67165;50.256;10.978;2023-04-04T06:18:26;0.30;98.00
26575;DHT22;67165;50.256;10.978;2023-04-04T06:20:52;0.30;98.00
26575;DHT22;67165;50.256;10.978;2023-04-04T06:23:17;0.30;98.00
26575;DHT22;67165;50.256;10.978;2023-04-04T06:25:43;0.40;98.00
26575;DHT22;67165;50.256;10.978;2023-04-04T06:28:09;0.50;98.00
26575;DHT22;67165;50.256;10.978;2023-04-04T06:30:36;0.70;98.00
26575;DHT22;67165;50.256;10.978;2023-04-04T06:33:03;0.90;98.00
26575;DHT22;67165;50.256;10.978;2023-04-04T06:35:28;1.00;98.00
26575;DHT22;67165;50.256;10.978;2023-04-04T06:37:55;1.00;98.00
26575;DHT22;67165;50.256;10.978;2023-04-04T06:40:21;1.10;98.00
26575;DHT22;67165;50.256;10.978;2023-04-04T06:42:50;1.20;98.00
26575;DHT22;67165;50.256;10.978;2023-04-04T06:45:16;1.20;98.00
26575;DHT22;67165;50.256;10.978;2023-04-04T06:47:42;1.30;98.00
26575;DHT22;67165;50.256;10.978;2023-04-04T06:50:09;1.40;98.00
26575;DHT22;67165;50.256;10.978;2023-04-04T06:52:35;1.60;98.00
26575;DHT22;67165;50.256;10.978;2023-04-04T06:55:01;1.60;98.00
26575;DHT22;67165;50.256;10.978;2023-04-04T06:57:27;1.70;98.00
26575;DHT22;67165;50.256;10.978;2023-04-04T06:59:52;1.70;98.00
26575;DHT22;67165;50.256;10.978;2023-04-04T07:02:18;1.90;98.00
26575;DHT22;67165;50.256;10.978;2023-04-04T07:04:44;2.00;98.00
26575;DHT22;67165;50.256;10.978;2023-04-04T07:07:11;2.10;98.00
26575;DHT22;67165;50.256;10.978;2023-04-04T07:09:36;2.20;98.00
26575;DHT22;67165;50.256;10.978;2023-04-04T07:12:03;2.30;98.00
26575;DHT22;67165;50.256;10.978;2023-04-04T07:14:28;2.50;98.00
26575;DHT22;67165;50.256;10.978;2023-04-04T07:16:54;2.80;98.00
26575;DHT22;67165;50.256;10.978;2023-04-04T07:19:20;3.10;98.00
26575;DHT22;67165;50.256;10.978;2023-04-04T07:21:48;3.40;98.00
26575;DHT22;67165;50.256;10.978;2023-04-04T07:24:14;3.50;98.00
26575;DHT22;67165;50.256;10.978;2023-04-04T07:26:40;3.70;98.00
26575;DHT22;67165;50.256;10.978;2023-04-04T07:29:06;3.50;98.00
26575;DHT22;67165;50.256;10.978;2023-04-04T07:31:32;3.50;98.00
26575;DHT22;67165;50.256;10.978;2023-04-04T07:33:58;3.30;98.00
26575;DHT22;67165;50.256;10.978;2023-04-04T07:36:23;3.20;98.00
26575;DHT22;67165;50.256;10.978;2023-04-04T07:38:49;3.20;98.00
26575;DHT22;67165;50.256;10.978;2023-04-04T07:41:15;3.30;98.00
26575;DHT22;67165;50.256;10.978;2023-04-04T07:43:42;3.30;98.00
26575;DHT22;67165;50.256;10.978;2023-04-04T07:46:10;3.40;98.00
26575;DHT22;67165;50.256;10.978;2023-04-04T07:48:36;3.50;98.00
26575;DHT22;67165;50.256;10.978;2023-04-04T07:51:02;3.70;98.00
26575;DHT22;67165;50.256;10.978;2023-04-04T07:53:29;3.70;98.00
26575;DHT22;67165;50.256;10.978;2023-04-04T07:55:55;4.00;98.00
26575;DHT22;67165;50.256;10.978;2023-04-04T07:58:20;4.10;98.00
26575;DHT22;67165;50.256;10.978;2023-04-04T08:00:46;4.00;98.00
26575;DHT22;67165;50.256;10.978;2023-04-04T08:03:12;3.90;98.00
26575;DHT22;67165;50.256;10.978;2023-04-04T08:05:38;3.80;98.00
26575;DHT22;67165;50.256;10.978;2023-04-04T08:08:05;3.30;98.00
26575;DHT22;67165;50.256;10.978;2023-04-04T08:10:31;3.30;98.00
26575;DHT22;67165;50.256;10.978;2023-04-04T08:12:59;3.40;98.00
26575;DHT22;67165;50.256;10.978;2023-04-04T08:15:25;3.50;98.00
26575;DHT22;67165;50.256;10.978;2023-04-04T08:17:51;3.40;98.00
26575;DHT22;67165;50.256;10.978;2023-04-04T08:20:17;3.40;98.00
26575;DHT22;67165;50.256;10.978;2023-04-04T08:22:43;3.50;98.00
26575;DHT22;67165;50.256;10.978;2023-04-04T08:25:09;3.40;98.00
26575;DHT22;67165;50.256;10.978;2023-04-04T08:27:38;3.40;98.00
26575;DHT22;67165;50.256;10.978;2023-04-04T08:30:04;3.40;98.00
26575;DHT22;67165;50.256;10.978;2023-04-04T08:32:31;3.40;98.00
26575;DHT22;67165;50.256;10.978;2023-04-04T08:34:56;3.40;98.00
26575;DHT22;67165;50.256;10.978;2023-04-04T08:37:22;3.70;98.00
26575;DHT22;67165;50.256;10.978;2023-04-04T08:39:48;3.60;98.00
26575;DHT22;67165;50.256;10.978;2023-04-04T08:42:14;3.70;98.00
26575;DHT22;67165;50.256;10.978;2023-04-04T08:44:43;3.60;98.00
26575;DHT22;67165;50.256;10.978;2023-04-04T08:47:10;3.40;98.00
26575;DHT22;67165;50.256;10.978;2023-04-04T08:49:41;3.30;98.00
26575;DHT22;67165;50.256;10.978;2023-04-04T08:52:11;3.20;98.00
26575;DHT22;67165;50.256;10.978;2023-04-04T08:54:38;3.10;98.00
26575;DHT22;67165;50.256;10.978;2023-04-04T08:57:05;3.30;98.00
26575;DHT22;67165;50.256;10.978;2023-04-04T08:59:34;3.50;98.00
26575;DHT22;67165;50.256;10.978;2023-04-04T09:04:36;3.70;98.00
26575;DHT22;67165;50.256;10.978;2023-04-04T09:07:04;3.90;98.00
26575;DHT22;67165;50.256;10.978;2023-04-04T09:09:31;3.80;98.00
26575;DHT22;67165;50.256;10.978;2023-04-04T09:11:59;3.70;98.00
26575;DHT22;67165;50.256;10.978;2023-04-04T09:14:26;3.70;98.00
26575;DHT22;67165;50.256;10.978;2023-04-04T09:16:54;3.70;98.00
26575;DHT22;67165;50.256;10.978;2023-04-04T09:19:20;3.60;98.00
26575;DHT22;67165;50.256;10.978;2023-04-04T09:21:47;3.90;98.00
26575;DHT22;67165;50.256;10.978;2023-04-04T09:24:13;4.00;98.00
26575;DHT22;67165;50.256;10.978;2023-04-04T09:26:47;3.80;98.00
26575;DHT22;67165;50.256;10.978;2023-04-04T09:29:15;3.70;98.00
26575;DHT22;67165;50.256;10.978;2023-04-04T09:31:41;3.70;98.00
26575;DHT22;67165;50.256;10.978;2023-04-04T09:34:15;3.80;98.00
26575;DHT22;67165;50.256;10.978;2023-04-04T09:36:41;3.80;98.00
26575;DHT22;67165;50.256;10.978;2023-04-04T09:39:09;3.90;98.00
26575;DHT22;67165;50.256;10.978;2023-04-04T09:41:39;3.90;98.00
26575;DHT22;67165;50.256;10.978;2023-04-04T09:44:05;3.80;98.00
26575;DHT22;67165;50.256;10.978;2023-04-04T09:46:34;3.80;98.00
26575;DHT22;67165;50.256;10.978;2023-04-04T09:49:00;3.90;98.00
26575;DHT22;67165;50.256;10.978;2023-04-04T09:51:33;4.10;98.00
26575;DHT22;67165;50.256;10.978;2023-04-04T09:54:03;4.00;98.00
26575;DHT22;67165;50.256;10.978;2023-04-04T09:56:34;4.20;98.00
26575;DHT22;67165;50.256;10.978;2023-04-04T09:59:00;4.50;98.00
26575;DHT22;67165;50.256;10.978;2023-04-04T10:01:28;4.40;98.00
26575;DHT22;67165;50.256;10.978;2023-04-04T10:03:54;4.60;98.00
26575;DHT22;67165;50.256;10.978;2023-04-04T10:06:22;4.60;98.00
26575;DHT22;67165;50.256;10.978;2023-04-04T10:08:48;4.60;98.00
26575;DHT22;67165;50.256;10.978;2023-04-04T10:11:28;4.50;98.00
26575;DHT22;67165;50.256;10.978;2023-04-04T10:13:56;4.50;98.00
26575;DHT22;67165;50.256;10.978;2023-04-04T10:16:23;4.60;98.00
26575;DHT22;67165;50.256;10.978;2023-04-04T10:18:49;4.60;98.00
26575;DHT22;67165;50.256;10.978;2023-04-04T10:21:16;4.60;98.00
26575;DHT22;67165;50.256;10.978;2023-04-04T10:23:44;4.60;98.00
26575;DHT22;67165;50.256;10.978;2023-04-04T10:26:11;4.60;98.00
26575;DHT22;67165;50.256;10.978;2023-04-04T10:28:37;4.50;98.00
26575;DHT22;67165;50.256;10.978;2023-04-04T10:34:06;4.70;98.00
26575;DHT22;67165;50.256;10.978;2023-04-04T10:36:53;4.80;98.00
26575;DHT22;67165;50.256;10.978;2023-04-04T10:39:32;4.60;98.00
26575;DHT22;67165;50.256;10.978;2023-04-04T10:42:04;4.60;98.00
26575;DHT22;67165;50.256;10.978;2023-04-04T10:44:40;4.80;98.00
26575;DHT22;67165;50.256;10.978;2023-04-04T10:47:20;4.90;98.00
26575;DHT22;67165;50.256;10.978;2023-04-04T10:49:47;5.10;98.00
26575;DHT22;67165;50.256;10.978;2023-04-04T10:52:18;5.10;97.60
26575;DHT22;67165;50.256;10.978;2023-04-04T10:54:44;4.90;98.00
26575;DHT22;67165;50.256;10.978;2023-04-04T10:57:12;4.70;98.00
26575;DHT22;67165;50.256;10.978;2023-04-04T11:00:02;4.70;98.00
26575;DHT22;67165;50.256;10.978;2023-04-04T11:07:45;4.70;98.00
26575;DHT22;67165;50.256;10.978;2023-04-04T11:10:25;4.90;98.00
26575;DHT22;67165;50.256;10.978;2023-04-04T11:12:52;4.80;98.00
26575;DHT22;67165;50.256;10.978;2023-04-04T11:15:23;4.90;98.00
26575;DHT22;67165;50.256;10.978;2023-04-04T11:18:04;4.90;98.00
26575;DHT22;67165;50.256;10.978;2023-04-04T11:20:34;5.00;98.00
26575;DHT22;67165;50.256;10.978;2023-04-04T11:23:21;5.30;98.00
26575;DHT22;67165;50.256;10.978;2023-04-04T11:25:52;5.50;98.00
26575;DHT22;67165;50.256;10.978;2023-04-04T11:34:07;5.30;97.50
26575;DHT22;67165;50.256;10.978;2023-04-04T11:39:06;5.50;97.00
26575;DHT22;67165;50.256;10.978;2023-04-04T11:44:18;6.00;96.70
26575;DHT22;67165;50.256;10.978;2023-04-04T11:46:44;5.60;95.80
26575;DHT22;67165;50.256;10.978;2023-04-04T11:49:13;5.50;95.90
26575;DHT22;67165;50.256;10.978;2023-04-04T11:51:40;5.70;96.60
26575;DHT22;67165;50.256;10.978;2023-04-04T11:54:16;5.70;95.40
26575;DHT22;67165;50.256;10.978;2023-04-04T11:56:45;5.90;96.20
26575;DHT22;67165;50.256;10.978;2023-04-04T11:59:20;6.00;96.00
26575;DHT22;67165;50.256;10.978;2023-04-04T12:01:47;5.70;94.40
26575;DHT22;67165;50.256;10.978;2023-04-04T12:04:17;5.50;95.30
26575;DHT22;67165;50.256;10.978;2023-04-04T12:06:47;5.50;96.90
26575;DHT22;67165;50.256;10.978;2023-04-04T12:09:15;5.80;96.50
26575;DHT22;67165;50.256;10.978;2023-04-04T12:11:43;6.10;96.30
26575;DHT22;67165;50.256;10.978;2023-04-04T12:14:22;5.90;94.20
26575;DHT22;67165;50.256;10.978;2023-04-04T12:16:53;5.90;94.50
26575;DHT22;67165;50.256;10.978;2023-04-04T12:19:19;6.10;94.90
26575;DHT22;67165;50.256;10.978;2023-04-04T12:21:47;5.90;95.30
26575;DHT22;67165;50.256;10.978;2023-04-04T12:24:13;6.00;95.30
26575;DHT22;67165;50.256;10.978;2023-04-04T12:26:41;6.20;96.10
26575;DHT22;67165;50.256;10.978;2023-04-04T12:29:08;6.20;95.50
26575;DHT22;67165;50.256;10.978;2023-04-04T12:31:35;6.30;95.10
26575;DHT22;67165;50.256;10.978;2023-04-04T12:34:02;6.00;95.10
26575;DHT22;67165;50.256;10.978;2023-04-04T12:36:31;5.70;96.30
26575;DHT22;67165;50.256;10.978;2023-04-04T12:39:09;5.60;96.50
26575;DHT22;67165;50.256;10.978;2023-04-04T12:47:07;5.60;95.80
26575;DHT22;67165;50.256;10.978;2023-04-04T12:49:45;5.60;94.50
26575;DHT22;67165;50.256;10.978;2023-04-04T12:52:42;5.70;93.80
26575;DHT22;67165;50.256;10.978;2023-04-04T12:55:10;5.80;95.40
26575;DHT22;67165;50.256;10.978;2023-04-04T12:57:37;5.80;96.30
26575;DHT22;67165;50.256;10.978;2023-04-04T13:00:04;5.80;96.60
26575;DHT22;67165;50.256;10.978;2023-04-04T13:02:34;6.00;95.80
26575;DHT22;67165;50.256;10.978;2023-04-04T13:05:02;6.10;96.00
26575;DHT22;67165;50.256;10.978;2023-04-04T13:07:30;5.80;95.50
26575;DHT22;67165;50.256;10.978;2023-04-04T13:10:01;5.70;95.20
26575;DHT22;67165;50.256;10.978;2023-04-04T13:12:51;5.90;96.90
26575;DHT22;67165;50.256;10.978;2023-04-04T13:15:17;6.00;96.00
26575;DHT22;67165;50.256;10.978;2023-04-04T13:17:45;6.00;95.40
26575;DHT22;67165;50.256;10.978;2023-04-04T13:20:12;5.80;95.10
26575;DHT22;67165;50.256;10.978;2023-04-04T13:22:39;5.90;96.50
26575;DHT22;67165;50.256;10.978;2023-04-04T13:25:06;5.90;95.20
26575;DHT22;67165;50.256;10.978;2023-04-04T13:27:32;6.00;94.80
26575;DHT22;67165;50.256;10.978;2023-04-04T13:29:58;6.00;94.90
26575;DHT22;67165;50.256;10.978;2023-04-04T13:32:23;6.00;95.20
26575;DHT22;67165;50.256;10.978;2023-04-04T13:34:49;6.10;95.90
26575;DHT22;67165;50.256;10.978;2023-04-04T13:37:15;6.00;95.20
26575;DHT22;67165;50.256;10.978;2023-04-04T13:39:41;6.10;94.60
26575;DHT22;67165;50.256;10.978;2023-04-04T13:42:06;6.10;94.70
26575;DHT22;67165;50.256;10.978;2023-04-04T13:44:32;6.30;95.20
26575;DHT22;67165;50.256;10.978;2023-04-04T13:46:58;6.20;96.00
26575;DHT22;67165;50.256;10.978;2023-04-04T13:49:23;6.30;95.40
26575;DHT22;67165;50.256;10.978;2023-04-04T13:51:49;6.10;94.90
26575;DHT22;67165;50.256;10.978;2023-04-04T13:54:15;6.00;94.80
26575;DHT22;67165;50.256;10.978;2023-04-04T13:56:40;5.90;94.90
26575;DHT22;67165;50.256;10.978;2023-04-04T13:59:06;5.90;94.30
26575;DHT22;67165;50.256;10.978;2023-04-04T14:01:32;5.90;96.40
26575;DHT22;67165;50.256;10.978;2023-04-04T14:03:58;6.00;95.20
26575;DHT22;67165;50.256;10.978;2023-04-04T14:06:24;5.90;95.00
26575;DHT22;67165;50.256;10.978;2023-04-04T14:08:51;6.00;94.30
26575;DHT22;67165;50.256;10.978;2023-04-04T14:11:17;6.00;94.60
26575;DHT22;67165;50.256;10.978;2023-04-04T14:13:43;6.20;95.80
26575;DHT22;67165;50.256;10.978;2023-04-04T14:16:09;6.40;96.30
26575;DHT22;67165;50.256;10.978;2023-04-04T14:18:34;6.70;94.80
26575;DHT22;67165;50.256;10.978;2023-04-04T14:21:01;6.70;94.10
26575;DHT22;67165;50.256;10.978;2023-04-04T14:23:27;6.80;93.30
26575;DHT22;67165;50.256;10.978;2023-04-04T14:25:55;6.70;93.00
26575;DHT22;67165;50.256;10.978;2023-04-04T14:28:21;6.40;93.40
26575;DHT22;67165;50.256;10.978;2023-04-04T14:30:49;5.90;94.30
26575;DHT22;67165;50.256;10.978;2023-04-04T14:33:15;5.80;94.60
26575;DHT22;67165;50.256;10.978;2023-04-04T14:35:41;5.30;95.00
26575;DHT22;67165;50.256;10.978;2023-04-04T14:38:06;5.10;95.90
26575;DHT22;67165;50.256;10.978;2023-04-04T14:40:32;5.20;97.10
26575;DHT22;67165;50.256;10.978;2023-04-04T14:42:58;5.30;97.30
26575;DHT22;67165;50.256;10.978;2023-04-04T14:45:23;5.40;96.00
26575;DHT22;67165;50.256;10.978;2023-04-04T14:47:49;5.30;95.00
26575;DHT22;67165;50.256;10.978;2023-04-04T14:50:15;5.40;95.30
26575;DHT22;67165;50.256;10.978;2023-04-04T14:52:40;5.70;96.70
26575;DHT22;67165;50.256;10.978;2023-04-04T14:55:07;5.80;94.90
26575;DHT22;67165;50.256;10.978;2023-04-04T14:57:33;5.80;94.40
26575;DHT22;67165;50.256;10.978;2023-04-04T15:00:01;5.80;94.10
26575;DHT22;67165;50.256;10.978;2023-04-04T15:02:27;5.80;94.60
26575;DHT22;67165;50.256;10.978;2023-04-04T15:04:53;5.80;95.70
26575;DHT22;67165;50.256;10.978;2023-04-04T15:07:18;5.80;95.50
26575;DHT22;67165;50.256;10.978;2023-04-04T15:09:48;5.80;95.00
26575;DHT22;67165;50.256;10.978;2023-04-04T15:12:14;5.80;95.80
26575;DHT22;67165;50.256;10.978;2023-04-04T15:14:40;5.90;96.20
26575;DHT22;67165;50.256;10.978;2023-04-04T15:17:05;5.90;96.00
26575;DHT22;67165;50.256;10.978;2023-04-04T15:19:31;5.90;96.50
26575;DHT22;67165;50.256;10.978;2023-04-04T15:21:57;5.70;96.00
26575;DHT22;67165;50.256;10.978;2023-04-04T15:24:23;5.60;96.20
26575;DHT22;67165;50.256;10.978;2023-04-04T15:26:49;5.30;97.90
26575;DHT22;67165;50.256;10.978;2023-04-04T15:29:14;5.10;97.40
26575;DHT22;67165;50.256;10.978;2023-04-04T15:31:40;5.10;97.90
26575;DHT22;67165;50.256;10.978;2023-04-04T15:34:07;5.10;98.00
26575;DHT22;67165;50.256;10.978;2023-04-04T15:36:33;5.10;98.00
26575;DHT22;67165;50.256;10.978;2023-04-04T15:39:00;5.20;98.00
26575;DHT22;67165;50.256;10.978;2023-04-04T15:41:26;5.40;98.00
26575;DHT22;67165;50.256;10.978;2023-04-04T15:43:52;5.40;97.00
26575;DHT22;67165;50.256;10.978;2023-04-04T15:46:18;5.30;97.20
26575;DHT22;67165;50.256;10.978;2023-04-04T15:48:43;5.10;97.60
26575;DHT22;67165;50.256;10.978;2023-04-04T15:51:09;5.10;97.90
26575;DHT22;67165;50.256;10.978;2023-04-04T15:53:35;5.10;97.80
26575;DHT22;67165;50.256;10.978;2023-04-04T15:56:01;5.10;98.00
26575;DHT22;67165;50.256;10.978;2023-04-04T15:58:27;5.20;97.60
26575;DHT22;67165;50.256;10.978;2023-04-04T16:00:53;5.10;97.00